sensor_id;sensor_type;location;lat;lon;timestamp;temperature;humidity
15328;DHT22;7764;51.430;6.840;2023-12-20T00:00:19;8.70;99.90
15328;DHT22;7764;51.430;6.840;2023-12-20T00:02:46;8.70;99.90
15328;DHT22;7764;51.430;6.840;2023-12-20T00:05:13;8.60;99.90
15328;DHT22;7764;51.430;6.840;2023-12-20T00:07:40;8.60;99.90
15328;DHT22;7764;51.430;6.840;2023-12-20T00:10:07;8.60;99.90
15328;DHT22;7764;51.430;6.840;2023-12-20T00:12:34;8.60;99.90
15328;DHT22;7764;51.430;6.840;2023-12-20T00:15:01;8.60;99.90
15328;DHT22;7764;51.430;6.840;2023-12-20T00:17:29;8.60;99.90
15328;DHT22;7764;51.430;6.840;2023-12-20T00:19:56;8.60;99.90
15328;DHT22;7764;51.430;6.840;2023-12-20T00:22:23;8.50;99.90
15328;DHT22;7764;51.430;6.840;2023-12-20T00:24:50;8.50;99.90
15328;DHT22;7764;51.430;6.840;2023-12-20T00:27:17;8.40;99.90
15328;DHT22;7764;51.430;6.840;2023-12-20T00:29:43;8.30;99.90
15328;DHT22;7764;51.430;6.840;2023-12-20T00:32:13;8.30;99.90
15328;DHT22;7764;51.430;6.840;2023-12-20T00:34:41;8.30;99.90
15328;DHT22;7764;51.430;6.840;2023-12-20T00:37:08;8.20;99.90
15328;DHT22;7764;51.430;6.840;2023-12-20T00:39:35;8.20;99.90
15328;DHT22;7764;51.430;6.840;2023-12-20T00:42:02;8.20;99.90
15328;DHT22;7764;51.430;6.840;2023-12-20T00:44:29;8.20;99.90
15328;DHT22;7764;51.430;6.840;2023-12-20T00:46:55;8.20;99.90
15328;DHT22;7764;51.430;6.840;2023-12-20T00:49:22;8.20;99.90
15328;DHT22;7764;51.430;6.840;2023-12-20T00:51:50;8.20;99.90
15328;DHT22;7764;51.430;6.840;2023-12-20T00:54:18;8.20;99.90
15328;DHT22;7764;51.430;6.840;2023-12-20T00:56:45;8.20;99.90
15328;DHT22;7764;51.430;6.840;2023-12-20T00:59:12;8.20;99.90
15328;DHT22;7764;51.430;6.840;2023-12-20T01:01:38;8.20;99.90
15328;DHT22;7764;51.430;6.840;2023-12-20T01:04:05;8.20;99.90
15328;DHT22;7764;51.430;6.840;2023-12-20T01:06:32;8.20;99.90
15328;DHT22;7764;51.430;6.840;2023-12-20T01:09:00;8.20;99.90
15328;DHT22;7764;51.430;6.840;2023-12-20T01:11:28;8.20;99.90
15328;DHT22;7764;51.430;6.840;2023-12-20T01:13:54;8.20;99.90
15328;DHT22;7764;51.430;6.840;2023-12-20T01:16:21;8.20;99.90
15328;DHT22;7764;51.430;6.840;2023-12-20T01:18:48;8.20;99.90
15328;DHT22;7764;51.430;6.840;2023-12-20T01:21:15;8.30;99.90
15328;DHT22;7764;51.430;6.840;2023-12-20T01:23:42;8.30;99.90
15328;DHT22;7764;51.430;6.840;2023-12-20T01:26:10;8.20;99.90
15328;DHT22;7764;51.430;6.840;2023-12-20T01:28:37;8.20;99.90
15328;DHT22;7764;51.430;6.840;2023-12-20T01:31:04;8.20;99.90
15328;DHT22;7764;51.430;6.840;2023-12-20T01:33:31;8.20;99.90
15328;DHT22;7764;51.430;6.840;2023-12-20T01:35:57;8.20;99.90
15328;DHT22;7764;51.430;6.840;2023-12-20T01:38:24;8.20;99.90
15328;DHT22;7764;51.430;6.840;2023-12-20T01:40:51;8.10;99.90
15328;DHT22;7764;51.430;6.840;2023-12-20T01:43:19;8.20;99.90
15328;DHT22;7764;51.430;6.840;2023-12-20T01:45:46;8.10;99.90
15328;DHT22;7764;51.430;6.840;2023-12-20T01:48:15;8.10;99.90
15328;DHT22;7764;51.430;6.840;2023-12-20T01:50:43;8.00;99.90
15328;DHT22;7764;51.430;6.840;2023-12-20T01:53:12;8.00;99.90
15328;DHT22;7764;51.430;6.840;2023-12-20T01:55:40;7.90;99.90
15328;DHT22;7764;51.430;6.840;2023-12-20T01:58:08;7.90;99.90
15328;DHT22;7764;51.430;6.840;2023-12-20T02:00:37;7.80;99.90
15328;DHT22;7764;51.430;6.840;2023-12-20T02:03:04;7.80;99.90
15328;DHT22;7764;51.430;6.840;2023-12-20T02:05:32;7.70;99.90
15328;DHT22;7764;51.430;6.840;2023-12-20T02:07:59;7.70;99.90
15328;DHT22;7764;51.430;6.840;2023-12-20T02:10:26;7.60;99.90
15328;DHT22;7764;51.430;6.840;2023-12-20T02:12:54;7.60;99.90
15328;DHT22;7764;51.430;6.840;2023-12-20T02:15:21;7.60;99.90
15328;DHT22;7764;51.430;6.840;2023-12-20T02:17:49;7.60;99.90
15328;DHT22;7764;51.430;6.840;2023-12-20T02:20:17;7.70;99.90
15328;DHT22;7764;51.430;6.840;2023-12-20T02:22:45;7.60;99.90
15328;DHT22;7764;51.430;6.840;2023-12-20T02:25:12;7.60;99.90
15328;DHT22;7764;51.430;6.840;2023-12-20T02:27:39;7.60;99.90
15328;DHT22;7764;51.430;6.840;2023-12-20T02:30:07;7.60;99.90
15328;DHT22;7764;51.430;6.840;2023-12-20T02:32:34;7.50;99.90
15328;DHT22;7764;51.430;6.840;2023-12-20T02:35:01;7.50;99.90
15328;DHT22;7764;51.430;6.840;2023-12-20T02:37:27;7.50;99.90
15328;DHT22;7764;51.430;6.840;2023-12-20T02:39:56;7.50;99.90
15328;DHT22;7764;51.430;6.840;2023-12-20T02:42:22;7.40;99.90
15328;DHT22;7764;51.430;6.840;2023-12-20T02:44:49;7.40;99.90
15328;DHT22;7764;51.430;6.840;2023-12-20T02:47:16;7.40;99.90
15328;DHT22;7764;51.430;6.840;2023-12-20T02:49:43;7.30;99.90
15328;DHT22;7764;51.430;6.840;2023-12-20T02:52:10;7.30;99.90
15328;DHT22;7764;51.430;6.840;2023-12-20T02:54:36;7.30;99.90
15328;DHT22;7764;51.430;6.840;2023-12-20T02:57:05;7.30;99.90
15328;DHT22;7764;51.430;6.840;2023-12-20T02:59:31;7.20;99.90
15328;DHT22;7764;51.430;6.840;2023-12-20T03:01:58;7.10;99.90
15328;DHT22;7764;51.430;6.840;2023-12-20T03:04:25;7.10;99.90
15328;DHT22;7764;51.430;6.840;2023-12-20T03:06:52;7.20;99.90
15328;DHT22;7764;51.430;6.840;2023-12-20T03:09:19;7.10;99.90
15328;DHT22;7764;51.430;6.840;2023-12-20T03:11:45;7.10;99.90
15328;DHT22;7764;51.430;6.840;2023-12-20T03:14:13;7.10;99.90
15328;DHT22;7764;51.430;6.840;2023-12-20T03:16:40;7.10;99.90
15328;DHT22;7764;51.430;6.840;2023-12-20T03:19:07;7.10;99.90
15328;DHT22;7764;51.430;6.840;2023-12-20T03:21:34;7.10;99.90
15328;DHT22;7764;51.430;6.840;2023-12-20T03:24:01;7.10;99.90
15328;DHT22;7764;51.430;6.840;2023-12-20T03:26:28;7.10;99.90
15328;DHT22;7764;51.430;6.840;2023-12-20T03:28:54;7.10;99.90
15328;DHT22;7764;51.430;6.840;2023-12-20T03:31:23;7.10;99.90
15328;DHT22;7764;51.430;6.840;2023-12-20T03:33:49;7.10;99.90
15328;DHT22;7764;51.430;6.840;2023-12-20T03:36:17;7.10;99.90
15328;DHT22;7764;51.430;6.840;2023-12-20T03:38:44;7.10;99.90
15328;DHT22;7764;51.430;6.840;2023-12-20T03:41:11;7.10;99.90
15328;DHT22;7764;51.430;6.840;2023-12-20T03:43:38;7.10;99.90
15328;DHT22;7764;51.430;6.840;2023-12-20T03:46:05;7.10;99.90
15328;DHT22;7764;51.430;6.840;2023-12-20T03:48:33;7.00;99.90
15328;DHT22;7764;51.430;6.840;2023-12-20T03:50:59;7.00;99.90
15328;DHT22;7764;51.430;6.840;2023-12-20T03:53:26;7.00;99.90
15328;DHT22;7764;51.430;6.840;2023-12-20T03:55:53;7.00;99.90
15328;DHT22;7764;51.430;6.840;2023-12-20T03:58:20;6.90;99.90
15328;DHT22;7764;51.430;6.840;2023-12-20T04:00:47;6.90;99.90
15328;DHT22;7764;51.430;6.840;2023-12-20T04:03:13;6.90;99.90
15328;DHT22;7764;51.430;6.840;2023-12-20T04:05:42;6.80;99.90
15328;DHT22;7764;51.430;6.840;2023-12-20T04:08:11;6.80;99.90
15328;DHT22;7764;51.430;6.840;2023-12-20T04:10:38;6.80;99.90
15328;DHT22;7764;51.430;6.840;2023-12-20T04:13:05;6.80;99.90
15328;DHT22;7764;51.430;6.840;2023-12-20T04:15:32;6.70;99.90
15328;DHT22;7764;51.430;6.840;2023-12-20T04:17:59;6.80;99.90
15328;DHT22;7764;51.430;6.840;2023-12-20T04:20:25;6.80;99.90
15328;DHT22;7764;51.430;6.840;2023-12-20T04:22:54;6.80;99.90
15328;DHT22;7764;51.430;6.840;2023-12-20T04:25:20;6.80;99.90
15328;DHT22;7764;51.430;6.840;2023-12-20T04:27:47;6.90;99.90
15328;DHT22;7764;51.430;6.840;2023-12-20T04:30:14;6.90;99.90
15328;DHT22;7764;51.430;6.840;2023-12-20T04:32:41;6.90;99.90
15328;DHT22;7764;51.430;6.840;2023-12-20T04:35:08;6.90;99.90
15328;DHT22;7764;51.430;6.840;2023-12-20T04:37:35;6.90;99.90
15328;DHT22;7764;51.430;6.840;2023-12-20T04:40:04;6.90;99.90
15328;DHT22;7764;51.430;6.840;2023-12-20T04:42:31;6.90;99.90
15328;DHT22;7764;51.430;6.840;2023-12-20T04:44:58;7.00;99.90
15328;DHT22;7764;51.430;6.840;2023-12-20T04:47:25;7.00;99.90
15328;DHT22;7764;51.430;6.840;2023-12-20T04:49:52;7.00;99.90
15328;DHT22;7764;51.430;6.840;2023-12-20T04:52:19;7.00;99.90
15328;DHT22;7764;51.430;6.840;2023-12-20T04:54:46;7.10;99.90
15328;DHT22;7764;51.430;6.840;2023-12-20T04:57:14;7.00;99.90
15328;DHT22;7764;51.430;6.840;2023-12-20T04:59:40;7.10;99.90
15328;DHT22;7764;51.430;6.840;2023-12-20T05:02:07;7.10;99.90
15328;DHT22;7764;51.430;6.840;2023-12-20T05:04:34;7.10;99.90
15328;DHT22;7764;51.430;6.840;2023-12-20T05:07:01;7.00;99.90
15328;DHT22;7764;51.430;6.840;2023-12-20T05:09:30;7.10;99.90
15328;DHT22;7764;51.430;6.840;2023-12-20T05:11:57;7.00;99.90
15328;DHT22;7764;51.430;6.840;2023-12-20T05:14:25;7.00;99.90
15328;DHT22;7764;51.430;6.840;2023-12-20T05:16:52;6.90;99.90
15328;DHT22;7764;51.430;6.840;2023-12-20T05:19:18;6.90;99.90
15328;DHT22;7764;51.430;6.840;2023-12-20T05:21:45;6.90;99.90
15328;DHT22;7764;51.430;6.840;2023-12-20T05:24:12;6.90;99.90
15328;DHT22;7764;51.430;6.840;2023-12-20T05:26:39;6.90;99.90
15328;DHT22;7764;51.430;6.840;2023-12-20T05:29:06;6.90;99.90
15328;DHT22;7764;51.430;6.840;2023-12-20T05:31:34;6.90;99.90
15328;DHT22;7764;51.430;6.840;2023-12-20T05:34:01;6.90;99.90
15328;DHT22;7764;51.430;6.840;2023-12-20T05:36:28;6.90;99.90
15328;DHT22;7764;51.430;6.840;2023-12-20T05:38:55;7.00;99.90
15328;DHT22;7764;51.430;6.840;2023-12-20T05:41:22;7.00;99.90
15328;DHT22;7764;51.430;6.840;2023-12-20T05:43:49;7.00;99.90
15328;DHT22;7764;51.430;6.840;2023-12-20T05:46:16;7.00;99.90
15328;DHT22;7764;51.430;6.840;2023-12-20T05:48:44;7.00;99.90
15328;DHT22;7764;51.430;6.840;2023-12-20T05:51:11;7.00;99.90
15328;DHT22;7764;51.430;6.840;2023-12-20T05:53:38;7.10;99.90
15328;DHT22;7764;51.430;6.840;2023-12-20T05:56:05;7.10;99.90
15328;DHT22;7764;51.430;6.840;2023-12-20T05:58:32;7.10;99.90
15328;DHT22;7764;51.430;6.840;2023-12-20T06:00:59;7.10;99.90
15328;DHT22;7764;51.430;6.840;2023-12-20T06:03:26;7.10;99.90
15328;DHT22;7764;51.430;6.840;2023-12-20T06:05:54;7.20;99.90
15328;DHT22;7764;51.430;6.840;2023-12-20T06:08:21;7.20;99.90
15328;DHT22;7764;51.430;6.840;2023-12-20T06:10:48;7.20;99.90
15328;DHT22;7764;51.430;6.840;2023-12-20T06:13:15;7.20;99.90
15328;DHT22;7764;51.430;6.840;2023-12-20T06:15:41;7.20;99.90
15328;DHT22;7764;51.430;6.840;2023-12-20T06:18:08;7.20;99.90
15328;DHT22;7764;51.430;6.840;2023-12-20T06:20:36;7.30;99.90
15328;DHT22;7764;51.430;6.840;2023-12-20T06:23:04;7.30;99.90
15328;DHT22;7764;51.430;6.840;2023-12-20T06:25:31;7.30;99.90
15328;DHT22;7764;51.430;6.840;2023-12-20T06:27:58;7.30;99.90
15328;DHT22;7764;51.430;6.840;2023-12-20T06:30:25;7.30;99.90
15328;DHT22;7764;51.430;6.840;2023-12-20T06:32:53;7.30;99.90
15328;DHT22;7764;51.430;6.840;2023-12-20T06:35:20;7.30;99.90
15328;DHT22;7764;51.430;6.840;2023-12-20T06:37:47;7.30;99.90
15328;DHT22;7764;51.430;6.840;2023-12-20T06:40:15;7.40;99.90
15328;DHT22;7764;51.430;6.840;2023-12-20T06:42:42;7.30;99.90
15328;DHT22;7764;51.430;6.840;2023-12-20T06:45:10;7.40;99.90
15328;DHT22;7764;51.430;6.840;2023-12-20T06:47:38;7.40;99.90
15328;DHT22;7764;51.430;6.840;2023-12-20T06:50:05;7.40;99.90
15328;DHT22;7764;51.430;6.840;2023-12-20T06:52:33;7.40;99.90
15328;DHT22;7764;51.430;6.840;2023-12-20T06:55:00;7.50;99.90
15328;DHT22;7764;51.430;6.840;2023-12-20T06:57:29;7.50;99.90
15328;DHT22;7764;51.430;6.840;2023-12-20T06:59:56;7.50;99.90
15328;DHT22;7764;51.430;6.840;2023-12-20T07:02:23;7.50;99.90
15328;DHT22;7764;51.430;6.840;2023-12-20T07:04:50;7.50;99.90
15328;DHT22;7764;51.430;6.840;2023-12-20T07:07:17;7.50;99.90
15328;DHT22;7764;51.430;6.840;2023-12-20T07:09:43;7.50;99.90
15328;DHT22;7764;51.430;6.840;2023-12-20T07:12:10;7.50;99.90
15328;DHT22;7764;51.430;6.840;2023-12-20T07:14:38;7.60;99.90
15328;DHT22;7764;51.430;6.840;2023-12-20T07:17:05;7.50;99.90
15328;DHT22;7764;51.430;6.840;2023-12-20T07:19:37;7.50;99.90
15328;DHT22;7764;51.430;6.840;2023-12-20T07:22:04;7.50;99.90
15328;DHT22;7764;51.430;6.840;2023-12-20T07:24:31;7.60;99.90
15328;DHT22;7764;51.430;6.840;2023-12-20T07:26:58;7.60;99.90
15328;DHT22;7764;51.430;6.840;2023-12-20T07:29:25;7.60;99.90
15328;DHT22;7764;51.430;6.840;2023-12-20T07:31:54;7.60;99.90
15328;DHT22;7764;51.430;6.840;2023-12-20T07:34:21;7.60;99.90
15328;DHT22;7764;51.430;6.840;2023-12-20T07:36:47;7.60;99.90
15328;DHT22;7764;51.430;6.840;2023-12-20T07:39:15;7.60;99.90
15328;DHT22;7764;51.430;6.840;2023-12-20T07:41:41;7.60;99.90
15328;DHT22;7764;51.430;6.840;2023-12-20T07:44:08;7.70;99.90
15328;DHT22;7764;51.430;6.840;2023-12-20T07:46:35;7.70;99.90
15328;DHT22;7764;51.430;6.840;2023-12-20T07:49:04;7.60;99.90
15328;DHT22;7764;51.430;6.840;2023-12-20T07:51:31;7.60;99.90
15328;DHT22;7764;51.430;6.840;2023-12-20T07:53:58;7.60;99.90
15328;DHT22;7764;51.430;6.840;2023-12-20T07:56:25;7.70;99.90
15328;DHT22;7764;51.430;6.840;2023-12-20T07:58:52;7.70;99.90
15328;DHT22;7764;51.430;6.840;2023-12-20T08:01:19;7.70;99.90
15328;DHT22;7764;51.430;6.840;2023-12-20T08:03:45;7.70;99.90
15328;DHT22;7764;51.430;6.840;2023-12-20T08:06:14;7.70;99.90
15328;DHT22;7764;51.430;6.840;2023-12-20T08:08:42;7.80;99.90
15328;DHT22;7764;51.430;6.840;2023-12-20T08:11:09;7.70;99.90
15328;DHT22;7764;51.430;6.840;2023-12-20T08:13:36;7.80;99.90
15328;DHT22;7764;51.430;6.840;2023-12-20T08:16:03;7.80;99.90
15328;DHT22;7764;51.430;6.840;2023-12-20T08:18:30;7.80;99.90
15328;DHT22;7764;51.430;6.840;2023-12-20T08:20:57;7.80;99.90
15328;DHT22;7764;51.430;6.840;2023-12-20T08:23:25;7.80;99.90
15328;DHT22;7764;51.430;6.840;2023-12-20T08:25:54;7.90;99.90
15328;DHT22;7764;51.430;6.840;2023-12-20T08:28:21;7.80;99.90
15328;DHT22;7764;51.430;6.840;2023-12-20T08:30:48;7.80;99.90
15328;DHT22;7764;51.430;6.840;2023-12-20T08:33:19;7.80;99.90
15328;DHT22;7764;51.430;6.840;2023-12-20T08:35:48;7.80;99.90
15328;DHT22;7764;51.430;6.840;2023-12-20T08:38:15;7.80;99.90
15328;DHT22;7764;51.430;6.840;2023-12-20T08:40:44;7.80;99.90
15328;DHT22;7764;51.430;6.840;2023-12-20T08:43:11;7.80;99.90
15328;DHT22;7764;51.430;6.840;2023-12-20T08:45:38;7.80;99.90
15328;DHT22;7764;51.430;6.840;2023-12-20T08:48:06;7.80;99.90
15328;DHT22;7764;51.430;6.840;2023-12-20T08:50:33;7.80;99.90
15328;DHT22;7764;51.430;6.840;2023-12-20T08:53:00;7.80;99.90
15328;DHT22;7764;51.430;6.840;2023-12-20T08:55:27;7.80;99.90
15328;DHT22;7764;51.430;6.840;2023-12-20T08:57:55;7.80;99.90
15328;DHT22;7764;51.430;6.840;2023-12-20T09:00:22;8.00;99.90
15328;DHT22;7764;51.430;6.840;2023-12-20T09:02:53;8.00;99.90
15328;DHT22;7764;51.430;6.840;2023-12-20T09:05:20;7.90;99.90
15328;DHT22;7764;51.430;6.840;2023-12-20T09:07:46;7.90;99.90
15328;DHT22;7764;51.430;6.840;2023-12-20T09:10:13;7.90;99.90
15328;DHT22;7764;51.430;6.840;2023-12-20T09:12:40;8.00;99.90
15328;DHT22;7764;51.430;6.840;2023-12-20T09:15:09;8.00;99.90
15328;DHT22;7764;51.430;6.840;2023-12-20T09:17:36;8.00;99.90
15328;DHT22;7764;51.430;6.840;2023-12-20T09:20:03;7.90;99.90
15328;DHT22;7764;51.430;6.840;2023-12-20T09:22:32;7.90;99.90
15328;DHT22;7764;51.430;6.840;2023-12-20T09:24:59;7.90;99.90
15328;DHT22;7764;51.430;6.840;2023-12-20T09:27:27;7.90;99.90
15328;DHT22;7764;51.430;6.840;2023-12-20T09:29:54;7.90;99.90
15328;DHT22;7764;51.430;6.840;2023-12-20T09:32:22;7.90;99.90
15328;DHT22;7764;51.430;6.840;2023-12-20T09:34:49;7.90;99.90
15328;DHT22;7764;51.430;6.840;2023-12-20T09:37:16;7.90;99.90
15328;DHT22;7764;51.430;6.840;2023-12-20T09:39:43;8.00;99.90
15328;DHT22;7764;51.430;6.840;2023-12-20T09:42:12;8.00;99.90
15328;DHT22;7764;51.430;6.840;2023-12-20T09:44:43;8.00;99.90
15328;DHT22;7764;51.430;6.840;2023-12-20T09:47:11;8.00;99.90
15328;DHT22;7764;51.430;6.840;2023-12-20T09:49:40;8.00;99.90
15328;DHT22;7764;51.430;6.840;2023-12-20T09:52:08;8.00;99.90
15328;DHT22;7764;51.430;6.840;2023-12-20T09:54:36;8.10;99.90
15328;DHT22;7764;51.430;6.840;2023-12-20T09:57:04;8.10;99.90
15328;DHT22;7764;51.430;6.840;2023-12-20T09:59:31;8.00;99.90
15328;DHT22;7764;51.430;6.840;2023-12-20T10:01:58;8.10;99.90
15328;DHT22;7764;51.430;6.840;2023-12-20T10:04:31;8.10;99.90
15328;DHT22;7764;51.430;6.840;2023-12-20T10:07:03;8.10;99.90
15328;DHT22;7764;51.430;6.840;2023-12-20T10:09:31;8.10;99.90
15328;DHT22;7764;51.430;6.840;2023-12-20T10:11:59;8.10;99.90
15328;DHT22;7764;51.430;6.840;2023-12-20T10:14:25;8.20;99.90
15328;DHT22;7764;51.430;6.840;2023-12-20T10:16:52;8.20;99.90
15328;DHT22;7764;51.430;6.840;2023-12-20T10:19:21;8.20;99.90
15328;DHT22;7764;51.430;6.840;2023-12-20T10:21:47;8.20;99.90
15328;DHT22;7764;51.430;6.840;2023-12-20T10:24:18;8.30;99.90
15328;DHT22;7764;51.430;6.840;2023-12-20T10:26:45;8.40;99.90
15328;DHT22;7764;51.430;6.840;2023-12-20T10:29:12;8.40;99.90
15328;DHT22;7764;51.430;6.840;2023-12-20T10:31:39;8.50;99.90
15328;DHT22;7764;51.430;6.840;2023-12-20T10:34:06;8.40;99.90
15328;DHT22;7764;51.430;6.840;2023-12-20T10:36:33;8.40;99.90
15328;DHT22;7764;51.430;6.840;2023-12-20T10:39:02;8.40;99.90
15328;DHT22;7764;51.430;6.840;2023-12-20T10:41:31;8.40;99.90
15328;DHT22;7764;51.430;6.840;2023-12-20T10:44:00;8.30;99.90
15328;DHT22;7764;51.430;6.840;2023-12-20T10:46:27;8.30;99.90
15328;DHT22;7764;51.430;6.840;2023-12-20T10:48:55;8.30;99.90
15328;DHT22;7764;51.430;6.840;2023-12-20T10:51:23;8.30;99.90
15328;DHT22;7764;51.430;6.840;2023-12-20T10:53:52;8.30;99.90
15328;DHT22;7764;51.430;6.840;2023-12-20T10:56:20;8.40;99.90
15328;DHT22;7764;51.430;6.840;2023-12-20T10:58:51;8.40;99.90
15328;DHT22;7764;51.430;6.840;2023-12-20T11:01:19;8.50;99.90
15328;DHT22;7764;51.430;6.840;2023-12-20T11:03:49;8.60;99.90
15328;DHT22;7764;51.430;6.840;2023-12-20T11:06:29;8.50;99.90
15328;DHT22;7764;51.430;6.840;2023-12-20T11:09:12;8.50;99.90
15328;DHT22;7764;51.430;6.840;2023-12-20T11:11:51;8.60;99.90
15328;DHT22;7764;51.430;6.840;2023-12-20T11:14:24;8.50;99.90
15328;DHT22;7764;51.430;6.840;2023-12-20T11:17:05;8.60;99.90
15328;DHT22;7764;51.430;6.840;2023-12-20T11:19:32;8.60;99.90
15328;DHT22;7764;51.430;6.840;2023-12-20T11:21:59;8.60;99.90
15328;DHT22;7764;51.430;6.840;2023-12-20T11:24:26;8.60;99.90
15328;DHT22;7764;51.430;6.840;2023-12-20T11:26:56;8.60;99.90
15328;DHT22;7764;51.430;6.840;2023-12-20T11:29:31;8.60;99.90
15328;DHT22;7764;51.430;6.840;2023-12-20T11:32:00;8.60;99.90
15328;DHT22;7764;51.430;6.840;2023-12-20T11:34:28;8.60;99.90
15328;DHT22;7764;51.430;6.840;2023-12-20T11:36:58;8.70;99.90
15328;DHT22;7764;51.430;6.840;2023-12-20T11:39:26;8.80;99.90
15328;DHT22;7764;51.430;6.840;2023-12-20T11:41:55;8.80;99.90
15328;DHT22;7764;51.430;6.840;2023-12-20T11:44:24;8.80;99.90
15328;DHT22;7764;51.430;6.840;2023-12-20T11:46:54;8.80;99.90
15328;DHT22;7764;51.430;6.840;2023-12-20T11:49:24;8.80;99.90
15328;DHT22;7764;51.430;6.840;2023-12-20T11:51:51;8.80;99.90
15328;DHT22;7764;51.430;6.840;2023-12-20T11:54:18;8.80;99.90
15328;DHT22;7764;51.430;6.840;2023-12-20T11:56:47;8.70;99.90
15328;DHT22;7764;51.430;6.840;2023-12-20T11:59:14;8.70;99.90
15328;DHT22;7764;51.430;6.840;2023-12-20T12:01:48;8.70;99.90
15328;DHT22;7764;51.430;6.840;2023-12-20T12:04:16;8.70;99.90
15328;DHT22;7764;51.430;6.840;2023-12-20T12:06:43;8.70;99.90
15328;DHT22;7764;51.430;6.840;2023-12-20T12:09:10;8.70;99.90
15328;DHT22;7764;51.430;6.840;2023-12-20T12:11:37;8.70;99.90
15328;DHT22;7764;51.430;6.840;2023-12-20T12:14:04;8.70;99.90
15328;DHT22;7764;51.430;6.840;2023-12-20T12:16:31;8.60;99.90
15328;DHT22;7764;51.430;6.840;2023-12-20T12:18:58;8.70;99.90
15328;DHT22;7764;51.430;6.840;2023-12-20T12:21:27;8.70;99.90
15328;DHT22;7764;51.430;6.840;2023-12-20T12:24:06;8.70;99.90
15328;DHT22;7764;51.430;6.840;2023-12-20T12:26:33;8.80;99.90
15328;DHT22;7764;51.430;6.840;2023-12-20T12:29:00;8.80;99.90
15328;DHT22;7764;51.430;6.840;2023-12-20T12:31:26;8.80;99.90
15328;DHT22;7764;51.430;6.840;2023-12-20T12:33:53;8.90;99.90
15328;DHT22;7764;51.430;6.840;2023-12-20T12:36:20;8.80;99.90
15328;DHT22;7764;51.430;6.840;2023-12-20T12:38:48;8.80;99.90
15328;DHT22;7764;51.430;6.840;2023-12-20T12:41:16;8.80;99.90
15328;DHT22;7764;51.430;6.840;2023-12-20T12:43:42;8.80;99.90
15328;DHT22;7764;51.430;6.840;2023-12-20T12:46:09;8.80;99.90
15328;DHT22;7764;51.430;6.840;2023-12-20T12:48:37;8.80;99.90
15328;DHT22;7764;51.430;6.840;2023-12-20T12:51:04;8.70;99.90
15328;DHT22;7764;51.430;6.840;2023-12-20T12:53:32;8.70;99.90
15328;DHT22;7764;51.430;6.840;2023-12-20T12:56:00;8.70;99.90
15328;DHT22;7764;51.430;6.840;2023-12-20T12:58:27;8.80;99.90
15328;DHT22;7764;51.430;6.840;2023-12-20T13:00:54;8.80;99.90
15328;DHT22;7764;51.430;6.840;2023-12-20T13:03:21;8.80;99.90
15328;DHT22;7764;51.430;6.840;2023-12-20T13:05:48;8.80;99.90
15328;DHT22;7764;51.430;6.840;2023-12-20T13:08:15;8.70;99.90
15328;DHT22;7764;51.430;6.840;2023-12-20T13:10:42;8.70;99.90
15328;DHT22;7764;51.430;6.840;2023-12-20T13:13:10;8.70;99.90
15328;DHT22;7764;51.430;6.840;2023-12-20T13:15:37;8.80;99.90
15328;DHT22;7764;51.430;6.840;2023-12-20T13:18:04;8.70;99.90
15328;DHT22;7764;51.430;6.840;2023-12-20T13:20:32;8.70;99.90
15328;DHT22;7764;51.430;6.840;2023-12-20T13:22:59;8.70;99.90
15328;DHT22;7764;51.430;6.840;2023-12-20T13:25:26;8.70;99.90
15328;DHT22;7764;51.430;6.840;2023-12-20T13:27:53;8.60;99.90
15328;DHT22;7764;51.430;6.840;2023-12-20T13:30:21;8.60;99.90
15328;DHT22;7764;51.430;6.840;2023-12-20T13:32:48;8.60;99.90
15328;DHT22;7764;51.430;6.840;2023-12-20T13:35:15;8.50;99.90
15328;DHT22;7764;51.430;6.840;2023-12-20T13:37:43;8.50;99.90
15328;DHT22;7764;51.430;6.840;2023-12-20T13:40:11;8.50;99.90
15328;DHT22;7764;51.430;6.840;2023-12-20T13:42:38;8.40;99.90
15328;DHT22;7764;51.430;6.840;2023-12-20T13:45:06;8.40;99.90
15328;DHT22;7764;51.430;6.840;2023-12-20T13:47:35;8.30;99.90
15328;DHT22;7764;51.430;6.840;2023-12-20T13:50:02;8.30;99.90
15328;DHT22;7764;51.430;6.840;2023-12-20T13:52:30;8.30;99.90
15328;DHT22;7764;51.430;6.840;2023-12-20T13:54:56;8.40;99.90
15328;DHT22;7764;51.430;6.840;2023-12-20T13:57:23;8.40;99.90
15328;DHT22;7764;51.430;6.840;2023-12-20T13:59:50;8.40;99.90
15328;DHT22;7764;51.430;6.840;2023-12-20T14:02:17;8.40;99.90
15328;DHT22;7764;51.430;6.840;2023-12-20T14:04:45;8.50;99.90
15328;DHT22;7764;51.430;6.840;2023-12-20T14:07:12;8.50;99.90
15328;DHT22;7764;51.430;6.840;2023-12-20T14:09:39;8.40;99.90
15328;DHT22;7764;51.430;6.840;2023-12-20T14:12:10;8.50;99.90
15328;DHT22;7764;51.430;6.840;2023-12-20T14:14:37;8.50;99.90
15328;DHT22;7764;51.430;6.840;2023-12-20T14:17:04;8.50;99.90
15328;DHT22;7764;51.430;6.840;2023-12-20T14:19:32;8.50;99.90
15328;DHT22;7764;51.430;6.840;2023-12-20T14:22:00;8.40;99.90
15328;DHT22;7764;51.430;6.840;2023-12-20T14:24:27;8.40;99.90
15328;DHT22;7764;51.430;6.840;2023-12-20T14:26:54;8.40;99.90
15328;DHT22;7764;51.430;6.840;2023-12-20T14:29:21;8.40;99.90
15328;DHT22;7764;51.430;6.840;2023-12-20T14:31:48;8.40;99.90
15328;DHT22;7764;51.430;6.840;2023-12-20T14:34:15;8.40;99.90
15328;DHT22;7764;51.430;6.840;2023-12-20T14:36:42;8.40;99.90
15328;DHT22;7764;51.430;6.840;2023-12-20T14:39:10;8.40;99.90
15328;DHT22;7764;51.430;6.840;2023-12-20T14:41:38;8.40;99.90
15328;DHT22;7764;51.430;6.840;2023-12-20T14:44:06;8.50;99.90
15328;DHT22;7764;51.430;6.840;2023-12-20T14:46:33;8.40;99.90
15328;DHT22;7764;51.430;6.840;2023-12-20T14:49:00;8.50;99.90
15328;DHT22;7764;51.430;6.840;2023-12-20T14:51:28;8.50;99.90
15328;DHT22;7764;51.430;6.840;2023-12-20T14:53:55;8.50;99.90
15328;DHT22;7764;51.430;6.840;2023-12-20T14:56:24;8.50;99.90
15328;DHT22;7764;51.430;6.840;2023-12-20T14:58:52;8.50;99.90
15328;DHT22;7764;51.430;6.840;2023-12-20T15:01:19;8.50;99.90
15328;DHT22;7764;51.430;6.840;2023-12-20T15:03:47;8.50;99.90
15328;DHT22;7764;51.430;6.840;2023-12-20T15:06:14;8.50;99.90
15328;DHT22;7764;51.430;6.840;2023-12-20T15:08:41;8.50;99.90
15328;DHT22;7764;51.430;6.840;2023-12-20T15:11:07;8.60;99.90
15328;DHT22;7764;51.430;6.840;2023-12-20T15:13:35;8.60;99.90
15328;DHT22;7764;51.430;6.840;2023-12-20T15:16:03;8.60;99.90
15328;DHT22;7764;51.430;6.840;2023-12-20T15:18:30;8.50;99.90
15328;DHT22;7764;51.430;6.840;2023-12-20T15:20:57;8.50;99.90
15328;DHT22;7764;51.430;6.840;2023-12-20T15:23:25;8.50;99.90
15328;DHT22;7764;51.430;6.840;2023-12-20T15:25:54;8.60;99.90
15328;DHT22;7764;51.430;6.840;2023-12-20T15:28:21;8.50;99.90
15328;DHT22;7764;51.430;6.840;2023-12-20T15:30:49;8.60;99.90
15328;DHT22;7764;51.430;6.840;2023-12-20T15:33:16;8.60;99.90
15328;DHT22;7764;51.430;6.840;2023-12-20T15:35:42;8.60;99.90
15328;DHT22;7764;51.430;6.840;2023-12-20T15:38:09;8.60;99.90
15328;DHT22;7764;51.430;6.840;2023-12-20T15:40:36;8.60;99.90
15328;DHT22;7764;51.430;6.840;2023-12-20T15:43:03;8.60;99.90
15328;DHT22;7764;51.430;6.840;2023-12-20T15:45:30;8.60;99.90
15328;DHT22;7764;51.430;6.840;2023-12-20T15:47:59;8.60;99.90
15328;DHT22;7764;51.430;6.840;2023-12-20T15:50:26;8.60;99.90
15328;DHT22;7764;51.430;6.840;2023-12-20T15:52:53;8.60;99.90
15328;DHT22;7764;51.430;6.840;2023-12-20T15:55:19;8.60;99.90
15328;DHT22;7764;51.430;6.840;2023-12-20T15:57:46;8.60;99.90
15328;DHT22;7764;51.430;6.840;2023-12-20T16:00:14;8.70;99.90
15328;DHT22;7764;51.430;6.840;2023-12-20T16:02:41;8.70;99.90